Time;durP1;ratioP1;P1;durP2;ratioP2;P2;SDS_P1;SDS_P2;PMS_P1;PMS_P2;Temp;Humidity;BMP_temperature;BMP_pressure;BME280_temperature;BME280_humidity;BME280_pressure;Samples;Min_cycle;Max_cycle;Signal;HPM_P1;HPM_P2
2022/11/10 00:00:25;;;;;;;;;;;;;;;15.80;73.02;101252.84;1298162;22;633;-80
2022/11/10 00:01:15;;;;;;;;;;;;;;;15.84;72.50;101262.38;1296456;22;667;-79
2022/11/10 00:02:06;;;;;;;;;;;;;;;15.79;72.96;101259.19;1297472;22;661;-79
2022/11/10 00:02:56;;;;;;;;;;;;;;;15.73;72.97;101269.59;1297496;22;797;-80
2022/11/10 00:03:47;;;;;;;;;;;;;;;15.58;73.48;101260.94;1297333;22;625;-79
2022/11/10 00:04:37;;;;;;;;;;;;;;;15.66;73.07;101261.16;1297514;22;562;-80
2022/11/10 00:05:27;;;;;;;;;;;;;;;15.74;73.06;101268.63;1296728;22;641;-80
2022/11/10 00:06:18;;;;;;;;;;;;;;;15.76;72.75;101269.34;1297465;22;676;-80
2022/11/10 00:07:08;;;;;;;;;;;;;;;15.69;72.82;101271.66;1297446;22;669;-79
2022/11/10 00:07:59;;;;;;;;;;;;;;;15.76;73.11;101272.03;1297484;22;731;-79
2022/11/10 00:08:49;;;;;;;;;;;;;;;15.65;71.29;101270.19;1297445;22;641;-79
2022/11/10 00:09:40;;;;;;;;;;;;;;;15.71;72.91;101263.47;1298303;22;633;-80
2022/11/10 00:10:30;;;;;;;;;;;;;;;15.75;73.26;101263.13;1297579;22;645;-80
2022/11/10 00:11:21;;;;;;;;;;;;;;;15.75;72.95;101273.03;1297368;22;621;-79
2022/11/10 00:12:11;;;;;;;;;;;;;;;15.77;73.15;101265.66;1298355;22;629;-79
2022/11/10 00:13:01;;;;;;;;;;;;;;;15.77;73.01;101260.28;1297427;22;692;-79
2022/11/10 00:17:19;;;;;;;;;;;;;;;15.78;73.24;101275.44;1295573;22;618;-79
2022/11/10 00:18:10;;;;;;;;;;;;;;;15.80;73.26;101276.16;1296963;22;727;-79
2022/11/10 00:19:00;;;;;;;;;;;;;;;15.79;72.98;101279.84;1296032;22;669;-79
2022/11/10 00:19:51;;;;;;;;;;;;;;;15.77;72.93;101271.03;1296032;22;660;-80
2022/11/10 00:20:41;;;;;;;;;;;;;;;15.79;72.86;101277.16;1297589;22;640;-80
2022/11/10 00:21:32;;;;;;;;;;;;;;;15.80;73.64;101276.16;1297466;22;680;-80
2022/11/10 00:22:22;;;;;;;;;;;;;;;15.80;73.05;101276.16;1298209;22;676;-80
2022/11/10 00:23:12;;;;;;;;;;;;;;;15.80;72.99;101273.47;1297465;22;615;-81
2022/11/10 00:24:03;;;;;;;;;;;;;;;15.82;72.93;101277.75;1297480;22;552;-80
2022/11/10 00:24:53;;;;;;;;;;;;;;;15.80;73.20;101260.03;1297471;22;590;-80
2022/11/10 00:25:44;;;;;;;;;;;;;;;15.76;73.23;101277.41;1298433;22;621;-81
2022/11/10 00:26:34;;;;;;;;;;;;;;;15.79;73.06;101263.72;1297562;22;641;-81
2022/11/10 00:27:25;;;;;;;;;;;;;;;15.83;73.04;101268.72;1297396;22;624;-81
2022/11/10 00:28:15;;;;;;;;;;;;;;;15.82;72.83;101282.28;1297699;22;993;-80
2022/11/10 00:29:05;;;;;;;;;;;;;;;15.73;73.39;101275.81;1297421;22;616;-79
2022/11/10 00:29:56;;;;;;;;;;;;;;;15.73;73.43;101275.81;1297475;22;699;-80
2022/11/10 00:30:46;;;;;;;;;;;;;;;15.77;73.00;101273.72;1297285;22;652;-80
2022/11/10 00:31:37;;;;;;;;;;;;;;;15.72;73.20;101273.25;1297516;22;617;-80
2022/11/10 00:32:27;;;;;;;;;;;;;;;15.72;73.29;101267.88;1297521;22;668;-80
2022/11/10 00:33:18;;;;;;;;;;;;;;;15.76;72.75;101270.22;1298282;22;656;-80
2022/11/10 00:34:08;;;;;;;;;;;;;;;15.79;73.00;101269.94;1297621;22;644;-81
2022/11/10 00:34:58;;;;;;;;;;;;;;;15.73;73.15;101270.44;1297480;22;656;-81
2022/11/10 00:35:49;;;;;;;;;;;;;;;15.75;73.14;101270.34;1297500;22;664;-81
2022/11/10 00:36:39;;;;;;;;;;;;;;;15.78;73.08;101272.75;1297444;22;653;-81
2022/11/10 00:37:30;;;;;;;;;;;;;;;15.78;72.95;101272.75;1298257;22;604;-80
2022/11/10 00:38:20;;;;;;;;;;;;;;;15.75;73.46;101273.03;1297421;22;561;-80
2022/11/10 00:39:11;;;;;;;;;;;;;;;15.77;73.02;101287.16;1297333;22;699;-80
2022/11/10 00:40:01;;;;;;;;;;;;;;;15.79;72.48;101282.53;1297297;22;621;-80
2022/11/10 00:40:52;;;;;;;;;;;;;;;15.80;73.03;101286.91;1297530;22;728;-79
2022/11/10 00:41:42;;;;;;;;;;;;;;;15.62;73.24;101287.41;1297690;22;635;-79
2022/11/10 00:42:33;;;;;;;;;;;;;;;15.67;73.38;101294.25;1297481;22;609;-79
2022/11/10 00:43:23;;;;;;;;;;;;;;;15.52;72.63;101289.09;1297341;22;625;-79
2022/11/10 00:44:16;;;;;;;;;;;;;;;15.49;73.51;101289.31;1297228;22;631;-78
2022/11/10 00:45:07;;;;;;;;;;;;;;;15.45;73.80;101292.34;1297443;22;755;-79
2022/11/10 00:45:57;;;;;;;;;;;;;;;15.55;73.61;101293.38;1297403;22;664;-79
2022/11/10 00:46:48;;;;;;;;;;;;;;;15.54;73.67;101295.19;1297482;22;637;-79
2022/11/10 00:47:38;;;;;;;;;;;;;;;15.59;73.69;101287.66;1297466;22;669;-79
2022/11/10 00:48:28;;;;;;;;;;;;;;;15.66;73.28;101292.53;1297341;22;720;-79
2022/11/10 00:49:19;;;;;;;;;;;;;;;15.67;73.10;101292.44;1297603;22;676;-79
2022/11/10 00:50:09;;;;;;;;;;;;;;;15.68;73.39;101294.13;1297408;22;719;-79
2022/11/10 00:51:00;;;;;;;;;;;;;;;15.59;73.51;101290.31;1297442;22;622;-79
2022/11/10 00:51:50;;;;;;;;;;;;;;;15.65;73.46;101297.06;1294585;22;642;-79
2022/11/10 00:52:41;;;;;;;;;;;;;;;15.59;73.39;101300.22;1297021;22;1901;-79
2022/11/10 00:53:31;;;;;;;;;;;;;;;15.53;71.46;101301.53;1297548;22;688;-79
2022/11/10 00:54:22;;;;;;;;;;;;;;;15.53;72.93;101298.84;1297583;22;598;-79
2022/11/10 00:55:12;;;;;;;;;;;;;;;15.54;73.64;101297.88;1297541;22;657;-79
2022/11/10 00:56:02;;;;;;;;;;;;;;;15.55;73.64;101299.63;1297382;22;613;-79
2022/11/10 00:56:53;;;;;;;;;;;;;;;15.54;72.15;101303.25;1297494;22;712;-80
2022/11/10 00:57:43;;;;;;;;;;;;;;;15.58;73.48;101309.28;1297320;22;676;-80
2022/11/10 00:58:34;;;;;;;;;;;;;;;15.41;71.75;101315.91;1297576;22;656;-80
2022/11/10 00:59:24;;;;;;;;;;;;;;;15.37;73.37;101319.84;1297330;22;627;-79
2022/11/10 01:00:15;;;;;;;;;;;;;;;15.39;73.08;101315.19;1297444;22;641;-79
2022/11/10 01:01:05;;;;;;;;;;;;;;;15.45;73.94;101314.69;1297579;22;609;-79
2022/11/10 01:01:56;;;;;;;;;;;;;;;15.55;73.89;101318.44;1297462;22;621;-79
2022/11/10 01:02:46;;;;;;;;;;;;;;;15.59;73.36;101311.81;1297548;22;680;-79
2022/11/10 01:03:36;;;;;;;;;;;;;;;15.68;73.16;101320.16;1296631;22;617;-80
2022/11/10 01:04:27;;;;;;;;;;;;;;;15.70;72.78;101313.69;1297438;22;645;-80
2022/11/10 01:05:17;;;;;;;;;;;;;;;15.62;73.30;101314.28;1297308;22;649;-80
2022/11/10 01:06:08;;;;;;;;;;;;;;;15.62;73.53;101311.59;1297243;22;641;-80
2022/11/10 01:06:59;;;;;;;;;;;;;;;15.66;73.39;101308.66;1297253;22;617;-80
2022/11/10 01:07:49;;;;;;;;;;;;;;;15.69;73.07;101316.50;1297399;22;687;-80
2022/11/10 01:08:39;;;;;;;;;;;;;;;15.51;71.83;101308.88;1297355;22;777;-83
2022/11/10 01:09:30;;;;;;;;;;;;;;;15.56;73.71;101309.41;1297086;22;665;-81
2022/11/10 01:10:20;;;;;;;;;;;;;;;15.60;73.74;101318.91;1295962;22;633;-82
2022/11/10 01:11:11;;;;;;;;;;;;;;;15.65;72.65;101313.19;1296363;22;585;-82
2022/11/10 01:12:01;;;;;;;;;;;;;;;15.54;73.58;101315.84;1297475;22;676;-82
2022/11/10 01:12:52;;;;;;;;;;;;;;;15.60;73.42;101315.38;1297347;22;1915;-81
2022/11/10 01:13:42;;;;;;;;;;;;;;;15.58;73.27;101318.19;1297713;22;645;-82
2022/11/10 01:14:32;;;;;;;;;;;;;;;15.50;72.96;101317.91;1297260;22;668;-82
2022/11/10 01:15:23;;;;;;;;;;;;;;;15.55;73.01;101315.75;1297523;22;621;-82
2022/11/10 01:16:13;;;;;;;;;;;;;;;15.56;73.25;101319.28;1297416;22;601;-82
2022/11/10 01:17:04;;;;;;;;;;;;;;;15.61;73.47;101320.63;1297550;22;669;-82
2022/11/10 01:17:54;;;;;;;;;;;;;;;15.58;73.58;101314.66;1296949;22;636;-82
2022/11/10 01:18:45;;;;;;;;;;;;;;;15.57;73.68;101316.50;1296960;22;657;-82
2022/11/10 01:19:35;;;;;;;;;;;;;;;15.52;72.48;101321.31;1296247;22;633;-82
2022/11/10 01:20:26;;;;;;;;;;;;;;;15.55;73.63;101314.84;1296371;22;721;-81
2022/11/10 01:21:16;;;;;;;;;;;;;;;15.60;73.41;101316.22;1297041;22;653;-82
2022/11/10 01:22:06;;;;;;;;;;;;;;;15.65;73.72;101315.88;1295959;22;617;-82
2022/11/10 01:22:57;;;;;;;;;;;;;;;15.68;73.60;101320.16;1296572;22;641;-82
2022/11/10 01:23:47;;;;;;;;;;;;;;;15.70;73.15;101323.56;1297396;22;728;-82
2022/11/10 01:24:38;;;;;;;;;;;;;;;15.69;73.22;101317.34;1297178;22;582;-82
2022/11/10 01:25:28;;;;;;;;;;;;;;;15.71;73.45;101317.22;1297521;22;649;-82
2022/11/10 01:26:19;;;;;;;;;;;;;;;15.69;73.37;101321.88;1297289;22;602;-82
2022/11/10 01:27:09;;;;;;;;;;;;;;;15.63;72.27;101318.66;1297519;22;644;-82
2022/11/10 01:28:00;;;;;;;;;;;;;;;15.61;73.44;101319.75;1297285;22;645;-82
2022/11/10 01:28:50;;;;;;;;;;;;;;;15.64;73.41;101316.84;1298307;22;680;-82
2022/11/10 01:29:40;;;;;;;;;;;;;;;15.64;73.43;101322.22;1297320;22;652;-82
2022/11/10 01:30:31;;;;;;;;;;;;;;;15.54;73.44;101319.38;1297397;22;701;-82
2022/11/10 01:31:21;;;;;;;;;;;;;;;15.59;73.54;101316.34;1297230;22;609;-81
2022/11/10 01:32:12;;;;;;;;;;;;;;;15.62;73.61;101319.66;1297417;22;688;-81
2022/11/10 01:33:02;;;;;;;;;;;;;;;15.64;72.68;101319.53;1297025;22;1923;-81
2022/11/10 01:33:53;;;;;;;;;;;;;;;15.68;73.09;101325.53;1296495;22;661;-81
2022/11/10 01:34:43;;;;;;;;;;;;;;;15.67;73.47;101321.13;1297020;22;683;-81
2022/11/10 01:35:33;;;;;;;;;;;;;;;15.67;73.41;101321.13;1297608;22;646;-80
2022/11/10 01:36:24;;;;;;;;;;;;;;;15.54;73.24;101319.38;1297240;22;640;-82
2022/11/10 01:37:15;;;;;;;;;;;;;;;15.59;73.86;101325.25;1296420;22;660;-82
2022/11/10 01:38:05;;;;;;;;;;;;;;;15.54;72.88;101322.06;1296961;22;657;-83
2022/11/10 01:38:55;;;;;;;;;;;;;;;15.57;73.57;101321.00;1297576;22;661;-83
2022/11/10 01:39:46;;;;;;;;;;;;;;;15.63;73.33;101321.34;1298597;22;696;-82
2022/11/10 01:40:36;;;;;;;;;;;;;;;15.54;73.60;101330.13;1297971;22;668;-82
2022/11/10 01:41:27;;;;;;;;;;;;;;;15.60;73.53;101326.09;1297570;22;630;-82
2022/11/10 01:42:17;;;;;;;;;;;;;;;15.58;73.67;101334.31;1297757;22;672;-82
2022/11/10 01:43:08;;;;;;;;;;;;;;;15.63;73.74;101326.72;1297720;22;620;-82
2022/11/10 01:43:58;;;;;;;;;;;;;;;15.62;73.79;101335.75;1297872;22;638;-82
2022/11/10 01:44:49;;;;;;;;;;;;;;;15.68;73.50;101325.53;1298668;22;660;-82
2022/11/10 01:45:39;;;;;;;;;;;;;;;15.70;73.40;101337.88;1297853;22;667;-82
2022/11/10 01:46:29;;;;;;;;;;;;;;;15.72;73.59;101340.44;1297829;22;621;-82
2022/11/10 01:47:20;;;;;;;;;;;;;;;15.70;73.29;101339.69;1298682;22;617;-83
2022/11/10 01:48:10;;;;;;;;;;;;;;;15.71;73.64;101338.72;1297881;22;645;-82
2022/11/10 01:49:01;;;;;;;;;;;;;;;15.71;73.57;101336.88;1298715;22;625;-83
2022/11/10 01:49:51;;;;;;;;;;;;;;;15.59;73.80;101351.25;1297840;22;601;-82
2022/11/10 01:50:42;;;;;;;;;;;;;;;15.61;73.77;101357.38;1297642;22;637;-82
2022/11/10 01:51:32;;;;;;;;;;;;;;;15.56;73.75;101346.16;1297852;22;699;-81
2022/11/10 01:52:22;;;;;;;;;;;;;;;15.59;73.07;101354.81;1297481;22;1210;-81
2022/11/10 01:53:13;;;;;;;;;;;;;;;15.59;73.53;101352.13;1297907;22;610;-81
2022/11/10 01:54:03;;;;;;;;;;;;;;;15.62;72.88;101353.72;1297817;22;648;-81
2022/11/10 01:54:54;;;;;;;;;;;;;;;15.49;73.13;101359.16;1297300;22;625;-82
2022/11/10 01:55:44;;;;;;;;;;;;;;;15.53;73.69;101359.78;1296602;22;660;-82
2022/11/10 01:56:35;;;;;;;;;;;;;;;15.57;73.97;101356.78;1296799;22;617;-82
2022/11/10 01:57:25;;;;;;;;;;;;;;;15.62;73.69;101362.63;1298574;22;624;-82
2022/11/10 01:58:15;;;;;;;;;;;;;;;15.65;73.48;101358.84;1297605;22;618;-82
2022/11/10 01:59:06;;;;;;;;;;;;;;;15.54;73.85;101362.34;1298460;22;656;-82
2022/11/10 01:59:56;;;;;;;;;;;;;;;15.45;74.06;101363.06;1297851;22;626;-82
2022/11/10 02:00:47;;;;;;;;;;;;;;;15.52;74.01;101358.06;1297687;22;621;-81
2022/11/10 02:01:37;;;;;;;;;;;;;;;15.60;73.58;101356.50;1297291;22;719;-81
2022/11/10 02:02:27;;;;;;;;;;;;;;;15.61;73.69;101358.22;1297690;22;665;-81
2022/11/10 02:03:18;;;;;;;;;;;;;;;15.63;73.41;101364.34;1297711;22;602;-80
2022/11/10 02:04:08;;;;;;;;;;;;;;;15.62;73.57;101359.94;1297553;22;621;-81
2022/11/10 02:04:59;;;;;;;;;;;;;;;15.66;73.15;101362.41;1297697;22;655;-80
2022/11/10 02:05:49;;;;;;;;;;;;;;;15.69;73.63;101370.22;1298592;22;673;-80
2022/11/10 02:06:40;;;;;;;;;;;;;;;15.58;72.89;101363.00;1297580;22;648;-80
2022/11/10 02:07:30;;;;;;;;;;;;;;;15.49;73.68;101367.22;1297814;22;708;-80
2022/11/10 02:08:21;;;;;;;;;;;;;;;15.52;73.93;101367.00;1297604;22;673;-80
2022/11/10 02:09:11;;;;;;;;;;;;;;;15.59;73.69;101370.94;1297720;22;629;-80
2022/11/10 02:10:01;;;;;;;;;;;;;;;15.63;73.56;101369.72;1297578;22;637;-81
2022/11/10 02:10:52;;;;;;;;;;;;;;;15.64;73.65;101367.88;1298661;22;685;-81
2022/11/10 02:11:42;;;;;;;;;;;;;;;15.66;73.30;101367.78;1297592;22;608;-81
2022/11/10 02:12:36;;;;;;;;;;;;;;;15.54;72.21;101362.34;1298549;22;636;-81
2022/11/10 02:13:26;;;;;;;;;;;;;;;15.57;73.71;101367.53;1297690;22;685;-80
2022/11/10 02:14:17;;;;;;;;;;;;;;;15.55;73.59;101371.28;1298720;22;661;-81
2022/11/10 02:15:07;;;;;;;;;;;;;;;15.55;72.44;101380.22;1297694;22;692;-80
2022/11/10 02:15:57;;;;;;;;;;;;;;;15.59;73.72;101375.44;1297043;22;556;-79
2022/11/10 02:16:48;;;;;;;;;;;;;;;15.62;73.75;101376.06;1297283;22;674;-80
2022/11/10 02:17:38;;;;;;;;;;;;;;;15.54;73.76;101381.16;1290641;23;752;-80
2022/11/10 02:18:29;;;;;;;;;;;;;;;15.58;73.69;101380.00;1290174;23;656;-80
2022/11/10 02:19:19;;;;;;;;;;;;;;;15.53;73.41;101376.75;1299286;22;671;-80
2022/11/10 02:20:10;;;;;;;;;;;;;;;15.59;73.63;101384.34;1297149;22;696;-80
2022/11/10 02:21:00;;;;;;;;;;;;;;;15.56;73.72;101376.56;1296606;22;660;-80
2022/11/10 02:21:50;;;;;;;;;;;;;;;15.57;73.64;101375.59;1296715;22;653;-80
2022/11/10 02:22:41;;;;;;;;;;;;;;;15.60;73.62;101378.00;1297761;22;666;-80
2022/11/10 02:23:33;;;;;;;;;;;;;;;15.61;73.19;101368.13;1297339;22;687;-80
2022/11/10 02:24:23;;;;;;;;;;;;;;;15.60;73.71;101377.16;1296496;22;668;-80
2022/11/10 02:25:13;;;;;;;;;;;;;;;15.60;73.68;101371.78;1296964;22;647;-80
2022/11/10 02:26:04;;;;;;;;;;;;;;;15.63;73.72;101372.41;1297424;22;660;-80
2022/11/10 02:26:54;;;;;;;;;;;;;;;15.66;73.47;101375.84;1296694;22;704;-80
2022/11/10 02:27:45;;;;;;;;;;;;;;;15.67;73.41;101381.09;1296728;22;669;-80
2022/11/10 02:28:35;;;;;;;;;;;;;;;15.56;73.75;101376.56;1297842;22;695;-80
2022/11/10 02:29:26;;;;;;;;;;;;;;;15.51;73.01;101381.38;1297102;22;624;-80
2022/11/10 02:30:16;;;;;;;;;;;;;;;15.55;73.85;101368.59;1289823;23;673;-80
2022/11/10 02:31:08;;;;;;;;;;;;;;;15.58;73.67;101374.63;1290116;23;681;-80
2022/11/10 02:31:58;;;;;;;;;;;;;;;15.61;73.70;101379.72;1299503;22;644;-80
2022/11/10 02:32:49;;;;;;;;;;;;;;;15.65;73.34;101371.44;1297580;22;1868;-80
2022/11/10 02:33:39;;;;;;;;;;;;;;;15.66;73.64;101370.47;1297607;22;613;-79
2022/11/10 02:34:30;;;;;;;;;;;;;;;15.56;73.31;101373.88;1297504;22;648;-80
2022/11/10 02:35:20;;;;;;;;;;;;;;;15.48;73.41;101375.41;1297720;22;695;-80
2022/11/10 02:36:10;;;;;;;;;;;;;;;15.53;73.85;101370.53;1297524;22;613;-80
2022/11/10 02:37:01;;;;;;;;;;;;;;;15.50;73.58;101377.00;1297335;22;660;-80
2022/11/10 02:37:51;;;;;;;;;;;;;;;15.56;73.90;101384.63;1291649;23;718;-80
2022/11/10 02:38:42;;;;;;;;;;;;;;;15.58;73.62;101380.00;1290084;23;617;-80
2022/11/10 02:39:32;;;;;;;;;;;;;;;15.59;73.62;101380.81;1299240;22;616;-80
2022/11/10 02:40:23;;;;;;;;;;;;;;;15.62;73.63;101388.63;1297649;22;660;-80
2022/11/10 02:41:13;;;;;;;;;;;;;;;15.64;73.74;101386.69;1297839;22;672;-80
2022/11/10 02:42:04;;;;;;;;;;;;;;;15.58;73.76;101385.38;1297579;22;625;-80
2022/11/10 02:42:54;;;;;;;;;;;;;;;15.58;73.77;101389.88;1297724;22;625;-80
2022/11/10 02:43:44;;;;;;;;;;;;;;;15.59;73.84;101381.66;1297540;22;637;-80
2022/11/10 02:44:35;;;;;;;;;;;;;;;15.58;73.55;101388.03;1297605;22;645;-80
2022/11/10 02:45:25;;;;;;;;;;;;;;;15.58;73.80;101388.03;1297391;22;680;-80
2022/11/10 02:46:16;;;;;;;;;;;;;;;15.60;73.57;101383.38;1297540;22;621;-80
2022/11/10 02:47:06;;;;;;;;;;;;;;;15.47;73.74;101392.47;1297659;22;554;-80
2022/11/10 02:47:57;;;;;;;;;;;;;;;15.50;73.85;101393.09;1297523;22;628;-80
2022/11/10 02:48:47;;;;;;;;;;;;;;;15.47;72.85;101387.97;1298561;22;597;-79
2022/11/10 02:49:38;;;;;;;;;;;;;;;15.54;73.89;101394.59;1297501;22;621;-80
2022/11/10 02:50:28;;;;;;;;;;;;;;;15.55;73.74;101395.44;1297488;22;664;-79
2022/11/10 02:51:19;;;;;;;;;;;;;;;15.57;73.78;101399.75;1297817;22;661;-82
2022/11/10 02:52:10;;;;;;;;;;;;;;;15.61;73.58;101395.84;1297497;22;623;-82
2022/11/10 02:53:00;;;;;;;;;;;;;;;15.61;73.70;101406.59;1297506;22;1940;-82
2022/11/10 02:53:51;;;;;;;;;;;;;;;15.55;73.71;101401.72;1297483;22;613;-83
2022/11/10 02:54:41;;;;;;;;;;;;;;;15.57;73.79;101409.66;1297320;22;669;-83
2022/11/10 02:55:31;;;;;;;;;;;;;;;15.51;73.82;101413.63;1296487;22;675;-83
2022/11/10 02:56:22;;;;;;;;;;;;;;;15.55;73.91;101419.63;1296659;22;646;-84
2022/11/10 02:57:12;;;;;;;;;;;;;;;15.56;74.05;101418.69;1297720;22;610;-84
2022/11/10 02:58:03;;;;;;;;;;;;;;;15.59;73.90;101402.31;1297497;22;646;-84
2022/11/10 02:58:53;;;;;;;;;;;;;;;15.59;73.62;101413.06;1297354;22;696;-84
2022/11/10 02:59:43;;;;;;;;;;;;;;;15.53;73.72;101414.38;1295517;22;715;-85
2022/11/10 03:00:34;;;;;;;;;;;;;;;15.44;74.04;101412.38;1296722;22;696;-84
2022/11/10 03:01:24;;;;;;;;;;;;;;;15.55;73.91;101406.19;1297672;22;689;-83
2022/11/10 03:02:15;;;;;;;;;;;;;;;15.50;73.94;101411.06;1297401;22;620;-82
2022/11/10 03:03:06;;;;;;;;;;;;;;;15.49;73.79;101412.88;1297730;22;635;-83
2022/11/10 03:03:56;;;;;;;;;;;;;;;15.56;73.74;101410.63;1297611;22;621;-83
2022/11/10 03:04:46;;;;;;;;;;;;;;;15.52;73.58;101412.66;1297664;22;677;-80
2022/11/10 03:05:37;;;;;;;;;;;;;;;15.44;72.53;101416.88;1297595;22;673;-80
2022/11/10 03:06:27;;;;;;;;;;;;;;;15.35;74.39;101415.78;1297682;22;628;-80
2022/11/10 03:07:18;;;;;;;;;;;;;;;15.30;74.39;101409.88;1297016;22;605;-80
2022/11/10 03:08:08;;;;;;;;;;;;;;;15.39;74.22;101411.88;1296423;22;581;-81
2022/11/10 03:08:58;;;;;;;;;;;;;;;15.46;73.93;101407.75;1298377;22;727;-80
2022/11/10 03:09:49;;;;;;;;;;;;;;;15.53;73.70;101413.50;1297643;22;645;-80
2022/11/10 03:10:39;;;;;;;;;;;;;;;15.41;73.89;101404.53;1297556;22;659;-80
2022/11/10 03:11:30;;;;;;;;;;;;;;;15.25;71.91;101414.72;1297541;22;628;-80
2022/11/10 03:12:20;;;;;;;;;;;;;;;15.34;74.27;101414.06;1297623;22;685;-80
2022/11/10 03:13:11;;;;;;;;;;;;;;;15.37;73.08;101408.47;1297043;22;633;-80
2022/11/10 03:14:01;;;;;;;;;;;;;;;15.43;74.04;101413.34;1295832;22;653;-79
2022/11/10 03:14:52;;;;;;;;;;;;;;;15.47;73.85;101409.44;1296538;22;765;-80
2022/11/10 03:15:42;;;;;;;;;;;;;;;15.52;73.43;101418.03;1297577;22;705;-80
2022/11/10 03:16:32;;;;;;;;;;;;;;;15.43;72.84;101416.03;1297451;22;965;-80
2022/11/10 03:17:23;;;;;;;;;;;;;;;15.44;73.82;101419.56;1297433;22;609;-81
2022/11/10 03:18:13;;;;;;;;;;;;;;;15.37;73.14;101421.03;1297792;22;566;-80
2022/11/10 03:19:04;;;;;;;;;;;;;;;15.42;74.26;101422.38;1297523;22;585;-80
2022/11/10 03:19:54;;;;;;;;;;;;;;;15.35;73.14;101425.66;1297714;22;727;-79
2022/11/10 03:20:45;;;;;;;;;;;;;;;15.28;73.68;101426.09;1297465;22;644;-79
2022/11/10 03:21:35;;;;;;;;;;;;;;;15.41;74.00;101420.66;1297535;22;668;-80
2022/11/10 03:22:25;;;;;;;;;;;;;;;15.40;73.90;101427.03;1297623;22;633;-79
2022/11/10 03:23:16;;;;;;;;;;;;;;;15.47;73.55;101419.34;1297467;22;626;-79
2022/11/10 03:24:06;;;;;;;;;;;;;;;15.50;73.68;101427.16;1297627;22;619;-80
2022/11/10 03:24:57;;;;;;;;;;;;;;;15.12;71.79;101417.50;1297485;22;676;-80
2022/11/10 03:25:47;;;;;;;;;;;;;;;15.31;74.58;101427.72;1297606;22;677;-80
2022/11/10 03:26:38;;;;;;;;;;;;;;;15.17;72.57;101431.44;1297115;22;633;-79
2022/11/10 03:27:28;;;;;;;;;;;;;;;15.17;74.48;101442.19;1296411;22;629;-79
2022/11/10 03:28:18;;;;;;;;;;;;;;;15.32;74.33;101432.09;1296382;22;619;-79
2022/11/10 03:29:09;;;;;;;;;;;;;;;15.41;73.90;101431.41;1297125;22;633;-79
2022/11/10 03:29:59;;;;;;;;;;;;;;;15.44;73.84;101433.84;1296483;22;720;-78
2022/11/10 03:30:50;;;;;;;;;;;;;;;15.41;72.87;101431.41;1296572;22;672;-79
2022/11/10 03:31:40;;;;;;;;;;;;;;;15.29;73.11;101437.72;1297652;22;644;-78
2022/11/10 03:32:31;;;;;;;;;;;;;;;15.40;73.70;101428.84;1297426;22;740;-78
2022/11/10 03:33:21;;;;;;;;;;;;;;;15.11;72.97;101433.72;1297730;22;647;-79
2022/11/10 03:34:11;;;;;;;;;;;;;;;15.31;74.43;101434.91;1297610;22;768;-79
2022/11/10 03:35:02;;;;;;;;;;;;;;;15.25;74.02;101436.22;1297419;22;633;-80
2022/11/10 03:35:52;;;;;;;;;;;;;;;15.30;73.04;101428.69;1297499;22;653;-80
2022/11/10 03:36:43;;;;;;;;;;;;;;;15.10;74.32;101434.69;1297424;22;618;-79
2022/11/10 03:37:33;;;;;;;;;;;;;;;15.08;73.76;101434.78;1297426;22;693;-79
2022/11/10 03:38:23;;;;;;;;;;;;;;;15.21;74.35;101440.13;1297580;22;668;-78
2022/11/10 03:39:14;;;;;;;;;;;;;;;15.28;74.03;101436.00;1297533;22;626;-79
2022/11/10 03:40:04;;;;;;;;;;;;;;;15.38;73.79;101433.50;1297477;22;696;-78
2022/11/10 03:40:55;;;;;;;;;;;;;;;15.42;73.57;101451.06;1297457;22;744;-78
2022/11/10 03:41:46;;;;;;;;;;;;;;;15.36;72.68;101438.97;1297451;22;731;-81
2022/11/10 03:42:36;;;;;;;;;;;;;;;15.33;74.19;101438.34;1297151;22;602;-81
2022/11/10 03:43:26;;;;;;;;;;;;;;;15.40;73.81;101445.84;1296456;22;833;-81
2022/11/10 03:44:17;;;;;;;;;;;;;;;15.43;73.65;101447.41;1289839;23;677;-81
2022/11/10 03:45:07;;;;;;;;;;;;;;;15.48;73.60;101454.16;1291752;23;803;-81
2022/11/10 03:45:58;;;;;;;;;;;;;;;15.47;73.70;101455.13;1291780;23;620;-81
2022/11/10 03:46:48;;;;;;;;;;;;;;;15.36;72.47;101459.59;1291732;23;661;-81
2022/11/10 03:47:39;;;;;;;;;;;;;;;15.42;74.08;101459.13;1297450;22;633;-81
2022/11/10 03:48:29;;;;;;;;;;;;;;;15.45;73.90;101464.25;1297176;22;665;-82
2022/11/10 03:49:19;;;;;;;;;;;;;;;15.41;73.48;101469.00;1296564;22;672;-81
2022/11/10 03:50:10;;;;;;;;;;;;;;;15.47;73.82;101468.53;1290072;23;649;-82
2022/11/10 03:51:00;;;;;;;;;;;;;;;15.45;74.12;101473.19;1291885;23;739;-82
2022/11/10 03:51:51;;;;;;;;;;;;;;;15.42;73.74;101470.72;1291714;23;628;-82
2022/11/10 03:52:41;;;;;;;;;;;;;;;15.35;73.48;101468.63;1284187;23;1262;-81
2022/11/10 03:53:32;;;;;;;;;;;;;;;15.31;73.48;101473.38;1290594;23;606;-84
2022/11/10 03:54:22;;;;;;;;;;;;;;;15.39;73.99;101480.84;1290892;23;684;-82
2022/11/10 03:55:12;;;;;;;;;;;;;;;15.43;73.63;101477.81;1291058;23;764;-82
2022/11/10 03:56:03;;;;;;;;;;;;;;;15.49;73.38;101482.72;1298185;22;685;-81
2022/11/10 03:56:53;;;;;;;;;;;;;;;15.36;74.17;101476.56;1297203;22;695;-81
2022/11/10 03:57:44;;;;;;;;;;;;;;;15.40;73.91;101483.44;1295632;22;626;-81
2022/11/10 03:58:35;;;;;;;;;;;;;;;15.43;73.75;101477.81;1296630;22;664;-80
2022/11/10 03:59:26;;;;;;;;;;;;;;;15.37;73.94;101483.66;1296709;22;672;-81
2022/11/10 04:00:16;;;;;;;;;;;;;;;15.42;73.96;101485.97;1290025;23;688;-81
2022/11/10 04:01:06;;;;;;;;;;;;;;;15.41;73.70;101485.13;1290093;23;797;-81
2022/11/10 04:01:57;;;;;;;;;;;;;;;15.43;73.89;101491.22;1291787;23;652;-81
2022/11/10 04:02:47;;;;;;;;;;;;;;;15.48;73.84;101493.59;1291950;23;617;-81
2022/11/10 04:03:38;;;;;;;;;;;;;;;15.42;72.76;101492.19;1291286;23;681;-82
2022/11/10 04:09:04;;;;;;;;;;;;;;;15.40;73.94;101504.91;1296109;22;769;-80
2022/11/10 04:09:55;;;;;;;;;;;;;;;15.43;73.87;101507.34;1297191;22;641;-80
2022/11/10 04:10:45;;;;;;;;;;;;;;;15.35;73.62;101506.22;1290187;23;598;-80
2022/11/10 04:16:12;;;;;;;;;;;;;;;15.36;73.97;101514.16;1296063;22;641;-81
2022/11/10 04:17:03;;;;;;;;;;;;;;;15.29;74.23;101512.91;1297525;22;660;-82
2022/11/10 04:17:53;;;;;;;;;;;;;;;15.25;74.17;101508.72;1297176;22;636;-81
2022/11/10 04:18:44;;;;;;;;;;;;;;;15.34;73.90;101507.19;1290141;23;609;-81
2022/11/10 04:19:34;;;;;;;;;;;;;;;15.35;74.04;101506.22;1290098;23;727;-81
2022/11/10 04:20:25;;;;;;;;;;;;;;;15.41;73.87;101514.66;1291642;23;688;-81
2022/11/10 04:21:15;;;;;;;;;;;;;;;15.47;73.70;101519.59;1291617;23;656;-81
2022/11/10 04:22:06;;;;;;;;;;;;;;;15.26;74.06;101513.13;1297533;22;652;-81
2022/11/10 04:24:05;;;;;;;;;;;;;;;15.30;73.47;101519.97;1295899;22;676;-82
2022/11/10 04:24:56;;;;;;;;;;;;;;;15.34;74.23;101513.41;1297497;22;660;-81
2022/11/10 04:26:27;;;;;;;;;;;;;;;15.37;74.16;101515.88;1297669;22;630;-82
2022/11/10 04:26:56;;;;;;;;;;;;;;;15.41;73.71;101521.84;1296661;22;1190;-81
2022/11/10 04:27:47;;;;;;;;;;;;;;;15.42;73.84;101520.88;1296829;22;677;-82
2022/11/10 04:28:38;;;;;;;;;;;;;;;15.44;73.49;101518.94;1296390;22;650;-81
2022/11/10 04:29:28;;;;;;;;;;;;;;;15.48;73.46;101521.31;1296589;22;613;-81
2022/11/10 04:30:18;;;;;;;;;;;;;;;15.51;73.63;101517.53;1297566;22;684;-80
2022/11/10 04:31:09;;;;;;;;;;;;;;;15.48;73.33;101518.63;1297709;22;569;-80
2022/11/10 04:31:59;;;;;;;;;;;;;;;15.44;73.69;101514.44;1297563;22;541;-80
2022/11/10 04:32:50;;;;;;;;;;;;;;;15.43;74.02;101514.53;1297329;22;1936;-80
2022/11/10 04:33:40;;;;;;;;;;;;;;;15.48;73.68;101515.94;1297457;22;617;-80
2022/11/10 04:34:31;;;;;;;;;;;;;;;15.41;73.93;101517.34;1297365;22;601;-80
2022/11/10 04:35:21;;;;;;;;;;;;;;;15.41;74.00;101517.34;1297465;22;680;-80
2022/11/10 04:36:12;;;;;;;;;;;;;;;15.39;72.79;101516.63;1297174;22;680;-80
2022/11/10 04:37:02;;;;;;;;;;;;;;;15.35;73.77;101517.81;1297473;22;628;-80
2022/11/10 04:37:52;;;;;;;;;;;;;;;15.35;73.73;101523.19;1297628;22;751;-80
2022/11/10 04:38:43;;;;;;;;;;;;;;;15.37;74.10;101520.41;1297305;22;677;-80
2022/11/10 04:39:33;;;;;;;;;;;;;;;15.40;73.90;101521.03;1297506;22;606;-79
2022/11/10 04:40:24;;;;;;;;;;;;;;;15.41;73.98;101525.41;1297334;22;629;-79